Terminal Aerodrome Forecast
Issued by NWS Jackson, KY

Home | Current Version | Previous Version | Text Only | Print | Product List | Glossary On
Versions: 1 2 3 4 5 6 7 8 9 10 11 12
713
FTUS43 KJKL 221738
TAFJKL
TAF
KJKL 221738Z 2218/2318 19005KT 6SM -RA VCTS BKN025 OVC050CB
     FM221900 VRB03KT 6SM -SHRA OVC045
     FM230400 17004KT 6SM SHRA BR VCTS OVC040CB WS020/20035KT
     FM231200 21006KT 6SM BR VCTS OVC035CB=

USA.gov is the U.S. government's official web portal to all federal, state and local government web resources and services.